sensor_id;sensor_type;location;lat;lon;timestamp;temperature;humidity
4399;DHT22;2213;49.720;7.296;2023-03-01T00:00:43;-1.30;99.90
4399;DHT22;2213;49.720;7.296;2023-03-01T00:03:13;-1.30;99.90
4399;DHT22;2213;49.720;7.296;2023-03-01T00:05:44;-1.40;99.90
4399;DHT22;2213;49.720;7.296;2023-03-01T00:08:15;-1.50;99.90
4399;DHT22;2213;49.720;7.296;2023-03-01T00:10:45;-1.50;99.90
4399;DHT22;2213;49.720;7.296;2023-03-01T00:13:14;-1.50;99.90
4399;DHT22;2213;49.720;7.296;2023-03-01T00:15:44;-1.50;99.90
4399;DHT22;2213;49.720;7.296;2023-03-01T00:18:13;-1.60;99.90
4399;DHT22;2213;49.720;7.296;2023-03-01T00:20:48;-1.60;99.90
4399;DHT22;2213;49.720;7.296;2023-03-01T00:23:19;-1.50;99.90
4399;DHT22;2213;49.720;7.296;2023-03-01T00:25:50;-1.50;99.90
4399;DHT22;2213;49.720;7.296;2023-03-01T00:28:21;-1.60;99.90
4399;DHT22;2213;49.720;7.296;2023-03-01T00:30:51;-1.70;99.90
4399;DHT22;2213;49.720;7.296;2023-03-01T00:33:19;-1.70;99.90
4399;DHT22;2213;49.720;7.296;2023-03-01T00:35:49;-1.90;99.90
4399;DHT22;2213;49.720;7.296;2023-03-01T00:38:19;-1.90;99.90
4399;DHT22;2213;49.720;7.296;2023-03-01T00:40:49;-1.80;99.90
4399;DHT22;2213;49.720;7.296;2023-03-01T00:43:19;-1.80;99.90
4399;DHT22;2213;49.720;7.296;2023-03-01T00:45:48;-1.90;99.90
4399;DHT22;2213;49.720;7.296;2023-03-01T00:48:17;-1.90;99.90
4399;DHT22;2213;49.720;7.296;2023-03-01T00:50:46;-2.00;99.90
4399;DHT22;2213;49.720;7.296;2023-03-01T00:53:15;-1.90;99.90
4399;DHT22;2213;49.720;7.296;2023-03-01T00:55:46;-1.90;99.90
4399;DHT22;2213;49.720;7.296;2023-03-01T00:58:15;-1.80;99.90
4399;DHT22;2213;49.720;7.296;2023-03-01T01:00:44;-1.80;99.90
4399;DHT22;2213;49.720;7.296;2023-03-01T01:03:13;-1.80;99.90
4399;DHT22;2213;49.720;7.296;2023-03-01T01:05:43;-1.80;99.90
4399;DHT22;2213;49.720;7.296;2023-03-01T01:08:12;-2.00;99.90
4399;DHT22;2213;49.720;7.296;2023-03-01T01:10:43;-1.90;99.90
4399;DHT22;2213;49.720;7.296;2023-03-01T01:13:14;-1.90;99.90
4399;DHT22;2213;49.720;7.296;2023-03-01T01:15:44;-1.90;99.90
4399;DHT22;2213;49.720;7.296;2023-03-01T01:18:13;-2.00;99.90
4399;DHT22;2213;49.720;7.296;2023-03-01T01:20:44;-2.00;99.90
4399;DHT22;2213;49.720;7.296;2023-03-01T01:23:14;-1.90;99.90
4399;DHT22;2213;49.720;7.296;2023-03-01T01:25:43;-1.90;99.90
4399;DHT22;2213;49.720;7.296;2023-03-01T01:28:13;-2.00;99.90
4399;DHT22;2213;49.720;7.296;2023-03-01T01:30:44;-1.90;99.90
4399;DHT22;2213;49.720;7.296;2023-03-01T01:33:14;-1.90;99.90
4399;DHT22;2213;49.720;7.296;2023-03-01T01:35:45;-2.10;99.90
4399;DHT22;2213;49.720;7.296;2023-03-01T01:38:14;-2.10;99.90
4399;DHT22;2213;49.720;7.296;2023-03-01T01:40:44;-2.20;99.90
4399;DHT22;2213;49.720;7.296;2023-03-01T01:43:19;-2.20;99.90
4399;DHT22;2213;49.720;7.296;2023-03-01T01:45:52;-2.30;99.90
4399;DHT22;2213;49.720;7.296;2023-03-01T01:48:29;-2.20;99.90
4399;DHT22;2213;49.720;7.296;2023-03-01T01:51:11;-2.10;99.90
4399;DHT22;2213;49.720;7.296;2023-03-01T01:53:45;-2.10;99.90
4399;DHT22;2213;49.720;7.296;2023-03-01T01:56:21;-2.10;99.90
4399;DHT22;2213;49.720;7.296;2023-03-01T01:58:56;-2.10;99.90
4399;DHT22;2213;49.720;7.296;2023-03-01T02:01:25;-2.20;99.90
4399;DHT22;2213;49.720;7.296;2023-03-01T02:03:55;-2.20;99.90
4399;DHT22;2213;49.720;7.296;2023-03-01T02:06:28;-2.20;99.90
4399;DHT22;2213;49.720;7.296;2023-03-01T02:09:06;-2.30;99.90
4399;DHT22;2213;49.720;7.296;2023-03-01T02:11:40;-2.20;99.90
4399;DHT22;2213;49.720;7.296;2023-03-01T02:14:12;-2.30;99.90
4399;DHT22;2213;49.720;7.296;2023-03-01T02:16:42;-2.30;99.90
4399;DHT22;2213;49.720;7.296;2023-03-01T02:19:20;-2.30;99.90
4399;DHT22;2213;49.720;7.296;2023-03-01T02:22:04;-2.40;99.90
4399;DHT22;2213;49.720;7.296;2023-03-01T02:24:52;-2.40;99.90
4399;DHT22;2213;49.720;7.296;2023-03-01T02:27:36;-2.30;99.90
4399;DHT22;2213;49.720;7.296;2023-03-01T02:30:12;-2.40;99.90
4399;DHT22;2213;49.720;7.296;2023-03-01T02:32:42;-2.50;99.90
4399;DHT22;2213;49.720;7.296;2023-03-01T02:35:14;-2.40;99.90
4399;DHT22;2213;49.720;7.296;2023-03-01T02:37:47;-2.60;99.90
4399;DHT22;2213;49.720;7.296;2023-03-01T02:40:19;-2.50;99.90
4399;DHT22;2213;49.720;7.296;2023-03-01T02:42:51;-2.50;99.90
4399;DHT22;2213;49.720;7.296;2023-03-01T02:45:26;-2.40;99.90
4399;DHT22;2213;49.720;7.296;2023-03-01T02:47:56;-2.50;99.90
4399;DHT22;2213;49.720;7.296;2023-03-01T02:50:50;-2.50;99.90
4399;DHT22;2213;49.720;7.296;2023-03-01T02:53:35;-2.40;99.90
4399;DHT22;2213;49.720;7.296;2023-03-01T02:56:10;-2.50;99.90
4399;DHT22;2213;49.720;7.296;2023-03-01T02:58:41;-2.20;99.90
4399;DHT22;2213;49.720;7.296;2023-03-01T03:01:16;-2.30;99.90
4399;DHT22;2213;49.720;7.296;2023-03-01T03:03:46;-2.20;99.90
4399;DHT22;2213;49.720;7.296;2023-03-01T03:06:15;-2.20;99.90
4399;DHT22;2213;49.720;7.296;2023-03-01T03:08:46;-2.20;99.90
4399;DHT22;2213;49.720;7.296;2023-03-01T03:11:16;-2.20;99.90
4399;DHT22;2213;49.720;7.296;2023-03-01T03:13:46;-2.10;99.90
4399;DHT22;2213;49.720;7.296;2023-03-01T03:16:16;-2.10;99.90
4399;DHT22;2213;49.720;7.296;2023-03-01T03:18:47;-2.30;99.90
4399;DHT22;2213;49.720;7.296;2023-03-01T03:21:17;-2.30;99.90
4399;DHT22;2213;49.720;7.296;2023-03-01T03:23:46;-2.30;99.90
4399;DHT22;2213;49.720;7.296;2023-03-01T03:26:16;-2.30;99.90
4399;DHT22;2213;49.720;7.296;2023-03-01T03:28:46;-2.20;99.90
4399;DHT22;2213;49.720;7.296;2023-03-01T03:31:18;-2.30;99.90
4399;DHT22;2213;49.720;7.296;2023-03-01T03:33:47;-2.30;99.90
4399;DHT22;2213;49.720;7.296;2023-03-01T03:36:18;-2.40;99.90
4399;DHT22;2213;49.720;7.296;2023-03-01T03:38:48;-2.30;99.90
4399;DHT22;2213;49.720;7.296;2023-03-01T03:41:17;-2.30;99.90
4399;DHT22;2213;49.720;7.296;2023-03-01T03:43:46;-2.30;99.90
4399;DHT22;2213;49.720;7.296;2023-03-01T03:46:18;-2.40;99.90
4399;DHT22;2213;49.720;7.296;2023-03-01T03:48:47;-2.30;99.90
4399;DHT22;2213;49.720;7.296;2023-03-01T03:51:18;-2.30;99.90
4399;DHT22;2213;49.720;7.296;2023-03-01T03:53:47;-2.20;99.90
4399;DHT22;2213;49.720;7.296;2023-03-01T03:56:16;-2.20;99.90
4399;DHT22;2213;49.720;7.296;2023-03-01T03:58:47;-2.20;99.90
4399;DHT22;2213;49.720;7.296;2023-03-01T04:01:18;-2.20;99.90
4399;DHT22;2213;49.720;7.296;2023-03-01T04:03:48;-2.30;99.90
4399;DHT22;2213;49.720;7.296;2023-03-01T04:06:22;-2.30;99.90
4399;DHT22;2213;49.720;7.296;2023-03-01T04:08:52;-2.30;99.90
4399;DHT22;2213;49.720;7.296;2023-03-01T04:11:26;-2.30;99.90
4399;DHT22;2213;49.720;7.296;2023-03-01T04:13:58;-2.30;99.90
4399;DHT22;2213;49.720;7.296;2023-03-01T04:16:29;-2.30;99.90
4399;DHT22;2213;49.720;7.296;2023-03-01T04:18:59;-2.20;99.90
4399;DHT22;2213;49.720;7.296;2023-03-01T04:21:29;-2.20;99.90
4399;DHT22;2213;49.720;7.296;2023-03-01T04:23:59;-2.20;99.90
4399;DHT22;2213;49.720;7.296;2023-03-01T04:29:01;-2.10;99.90
4399;DHT22;2213;49.720;7.296;2023-03-01T04:31:32;-2.10;99.90
4399;DHT22;2213;49.720;7.296;2023-03-01T04:34:02;-2.10;99.90
4399;DHT22;2213;49.720;7.296;2023-03-01T04:36:32;-2.10;99.90
4399;DHT22;2213;49.720;7.296;2023-03-01T04:39:05;-2.10;99.90
4399;DHT22;2213;49.720;7.296;2023-03-01T04:41:40;-2.10;99.90
4399;DHT22;2213;49.720;7.296;2023-03-01T04:44:12;-2.10;99.90
4399;DHT22;2213;49.720;7.296;2023-03-01T04:46:44;-2.00;99.90
4399;DHT22;2213;49.720;7.296;2023-03-01T04:49:13;-2.00;99.90
4399;DHT22;2213;49.720;7.296;2023-03-01T04:51:42;-2.00;99.90
4399;DHT22;2213;49.720;7.296;2023-03-01T04:54:13;-2.00;99.90
4399;DHT22;2213;49.720;7.296;2023-03-01T04:56:42;-1.90;99.90
4399;DHT22;2213;49.720;7.296;2023-03-01T04:59:13;-1.90;99.90
4399;DHT22;2213;49.720;7.296;2023-03-01T05:01:43;-1.80;99.90
4399;DHT22;2213;49.720;7.296;2023-03-01T05:04:13;-1.80;99.90
4399;DHT22;2213;49.720;7.296;2023-03-01T05:06:43;-1.70;99.90
4399;DHT22;2213;49.720;7.296;2023-03-01T05:09:13;-1.70;99.90
4399;DHT22;2213;49.720;7.296;2023-03-01T05:11:43;-1.70;99.90
4399;DHT22;2213;49.720;7.296;2023-03-01T05:14:13;-1.70;99.90
4399;DHT22;2213;49.720;7.296;2023-03-01T05:16:44;-1.70;99.90
4399;DHT22;2213;49.720;7.296;2023-03-01T05:19:14;-1.70;99.90
4399;DHT22;2213;49.720;7.296;2023-03-01T05:21:43;-1.70;99.90
4399;DHT22;2213;49.720;7.296;2023-03-01T05:24:34;-1.70;99.90
4399;DHT22;2213;49.720;7.296;2023-03-01T05:27:04;-1.80;99.90
4399;DHT22;2213;49.720;7.296;2023-03-01T05:29:35;-1.80;99.90
4399;DHT22;2213;49.720;7.296;2023-03-01T05:32:08;-1.70;99.90
4399;DHT22;2213;49.720;7.296;2023-03-01T05:34:43;-1.70;99.90
4399;DHT22;2213;49.720;7.296;2023-03-01T05:37:15;-1.80;99.90
4399;DHT22;2213;49.720;7.296;2023-03-01T05:39:44;-1.80;99.90
4399;DHT22;2213;49.720;7.296;2023-03-01T05:42:16;-1.70;99.90
4399;DHT22;2213;49.720;7.296;2023-03-01T05:44:47;-1.80;99.90
4399;DHT22;2213;49.720;7.296;2023-03-01T05:47:18;-1.80;99.90
4399;DHT22;2213;49.720;7.296;2023-03-01T05:49:48;-1.80;99.90
4399;DHT22;2213;49.720;7.296;2023-03-01T05:52:17;-1.70;99.90
4399;DHT22;2213;49.720;7.296;2023-03-01T05:54:45;-1.70;99.90
4399;DHT22;2213;49.720;7.296;2023-03-01T05:57:16;-1.80;99.90
4399;DHT22;2213;49.720;7.296;2023-03-01T05:59:46;-1.80;99.90
4399;DHT22;2213;49.720;7.296;2023-03-01T06:02:17;-1.80;99.90
4399;DHT22;2213;49.720;7.296;2023-03-01T06:04:48;-1.90;99.90
4399;DHT22;2213;49.720;7.296;2023-03-01T06:07:17;-1.90;99.90
4399;DHT22;2213;49.720;7.296;2023-03-01T06:09:47;-1.80;99.90
4399;DHT22;2213;49.720;7.296;2023-03-01T06:12:17;-1.80;99.90
4399;DHT22;2213;49.720;7.296;2023-03-01T06:14:47;-1.80;99.90
4399;DHT22;2213;49.720;7.296;2023-03-01T06:17:18;-1.80;99.90
4399;DHT22;2213;49.720;7.296;2023-03-01T06:19:48;-1.90;99.90
4399;DHT22;2213;49.720;7.296;2023-03-01T06:22:18;-1.90;99.90
4399;DHT22;2213;49.720;7.296;2023-03-01T06:24:47;-1.80;99.90
4399;DHT22;2213;49.720;7.296;2023-03-01T06:27:18;-1.90;99.90
4399;DHT22;2213;49.720;7.296;2023-03-01T06:29:47;-1.70;99.90
4399;DHT22;2213;49.720;7.296;2023-03-01T06:32:18;-1.80;99.90
4399;DHT22;2213;49.720;7.296;2023-03-01T06:34:47;-1.80;99.90
4399;DHT22;2213;49.720;7.296;2023-03-01T06:37:16;-1.80;99.90
4399;DHT22;2213;49.720;7.296;2023-03-01T06:39:45;-1.80;99.90
4399;DHT22;2213;49.720;7.296;2023-03-01T06:42:15;-1.70;99.90
4399;DHT22;2213;49.720;7.296;2023-03-01T06:44:44;-1.70;99.90
4399;DHT22;2213;49.720;7.296;2023-03-01T06:47:14;-1.70;99.90
4399;DHT22;2213;49.720;7.296;2023-03-01T06:49:45;-1.60;99.90
4399;DHT22;2213;49.720;7.296;2023-03-01T06:52:15;-1.70;99.90
4399;DHT22;2213;49.720;7.296;2023-03-01T06:54:44;-1.60;99.90
4399;DHT22;2213;49.720;7.296;2023-03-01T06:57:14;-1.60;99.90
4399;DHT22;2213;49.720;7.296;2023-03-01T06:59:44;-1.60;99.90
4399;DHT22;2213;49.720;7.296;2023-03-01T07:02:16;-1.60;99.90
4399;DHT22;2213;49.720;7.296;2023-03-01T07:04:50;-1.60;99.90
4399;DHT22;2213;49.720;7.296;2023-03-01T07:07:19;-1.50;99.90
4399;DHT22;2213;49.720;7.296;2023-03-01T07:09:49;-1.60;99.90
4399;DHT22;2213;49.720;7.296;2023-03-01T07:12:21;-1.50;99.90
4399;DHT22;2213;49.720;7.296;2023-03-01T07:14:51;-1.50;99.90
4399;DHT22;2213;49.720;7.296;2023-03-01T07:17:21;-1.40;99.90
4399;DHT22;2213;49.720;7.296;2023-03-01T07:19:52;-1.40;99.90
4399;DHT22;2213;49.720;7.296;2023-03-01T07:22:22;-1.40;99.90
4399;DHT22;2213;49.720;7.296;2023-03-01T07:24:53;-1.30;99.90
4399;DHT22;2213;49.720;7.296;2023-03-01T07:27:24;-1.20;99.90
4399;DHT22;2213;49.720;7.296;2023-03-01T07:29:53;-1.30;99.90
4399;DHT22;2213;49.720;7.296;2023-03-01T07:32:22;-1.20;99.90
4399;DHT22;2213;49.720;7.296;2023-03-01T07:34:54;-1.20;99.90
4399;DHT22;2213;49.720;7.296;2023-03-01T07:37:24;-1.20;99.90
4399;DHT22;2213;49.720;7.296;2023-03-01T07:39:53;-1.10;99.90
4399;DHT22;2213;49.720;7.296;2023-03-01T07:42:22;-1.10;99.90
4399;DHT22;2213;49.720;7.296;2023-03-01T07:44:52;-1.10;99.90
4399;DHT22;2213;49.720;7.296;2023-03-01T07:47:22;-1.00;99.90
4399;DHT22;2213;49.720;7.296;2023-03-01T07:49:54;-1.00;99.90
4399;DHT22;2213;49.720;7.296;2023-03-01T07:52:24;-1.10;99.90
4399;DHT22;2213;49.720;7.296;2023-03-01T07:54:54;-1.00;99.90
4399;DHT22;2213;49.720;7.296;2023-03-01T07:57:24;-1.00;99.90
4399;DHT22;2213;49.720;7.296;2023-03-01T07:59:55;-0.90;99.90
4399;DHT22;2213;49.720;7.296;2023-03-01T08:02:25;-0.90;99.90
4399;DHT22;2213;49.720;7.296;2023-03-01T08:04:58;-0.90;99.90
4399;DHT22;2213;49.720;7.296;2023-03-01T08:07:27;-0.90;99.90
4399;DHT22;2213;49.720;7.296;2023-03-01T08:09:56;-0.80;99.90
4399;DHT22;2213;49.720;7.296;2023-03-01T08:12:26;-0.80;99.90
4399;DHT22;2213;49.720;7.296;2023-03-01T08:14:56;-0.90;99.90
4399;DHT22;2213;49.720;7.296;2023-03-01T08:17:26;-0.80;99.90
4399;DHT22;2213;49.720;7.296;2023-03-01T08:19:57;-0.70;99.90
4399;DHT22;2213;49.720;7.296;2023-03-01T08:22:27;-0.70;99.90
4399;DHT22;2213;49.720;7.296;2023-03-01T08:24:57;-0.70;99.90
4399;DHT22;2213;49.720;7.296;2023-03-01T08:27:27;-0.60;99.90
4399;DHT22;2213;49.720;7.296;2023-03-01T08:29:56;-0.60;99.90
4399;DHT22;2213;49.720;7.296;2023-03-01T08:32:26;-0.50;99.90
4399;DHT22;2213;49.720;7.296;2023-03-01T08:34:57;-0.40;99.90
4399;DHT22;2213;49.720;7.296;2023-03-01T08:37:26;-0.20;99.90
4399;DHT22;2213;49.720;7.296;2023-03-01T08:39:58;-0.20;99.90
4399;DHT22;2213;49.720;7.296;2023-03-01T08:42:28;-0.20;99.90
4399;DHT22;2213;49.720;7.296;2023-03-01T08:44:59;-0.10;99.90
4399;DHT22;2213;49.720;7.296;2023-03-01T08:47:29;0.00;99.90
4399;DHT22;2213;49.720;7.296;2023-03-01T08:50:03;0.10;99.90
4399;DHT22;2213;49.720;7.296;2023-03-01T08:52:34;0.30;99.90
4399;DHT22;2213;49.720;7.296;2023-03-01T08:55:07;0.30;99.90
4399;DHT22;2213;49.720;7.296;2023-03-01T08:57:38;0.50;99.90
4399;DHT22;2213;49.720;7.296;2023-03-01T09:00:09;0.50;99.90
4399;DHT22;2213;49.720;7.296;2023-03-01T09:02:42;0.60;99.90
4399;DHT22;2213;49.720;7.296;2023-03-01T09:05:13;0.80;99.90
4399;DHT22;2213;49.720;7.296;2023-03-01T09:07:46;0.80;99.90
4399;DHT22;2213;49.720;7.296;2023-03-01T09:10:16;0.90;99.90
4399;DHT22;2213;49.720;7.296;2023-03-01T09:12:46;1.00;99.90
4399;DHT22;2213;49.720;7.296;2023-03-01T09:15:17;1.20;99.90
4399;DHT22;2213;49.720;7.296;2023-03-01T09:17:46;1.20;99.90
4399;DHT22;2213;49.720;7.296;2023-03-01T09:20:18;1.10;99.90
4399;DHT22;2213;49.720;7.296;2023-03-01T09:22:48;1.20;99.90
4399;DHT22;2213;49.720;7.296;2023-03-01T09:25:17;1.20;99.90
4399;DHT22;2213;49.720;7.296;2023-03-01T09:27:50;1.30;99.90
4399;DHT22;2213;49.720;7.296;2023-03-01T09:30:21;1.30;99.90
4399;DHT22;2213;49.720;7.296;2023-03-01T09:32:52;1.40;99.90
4399;DHT22;2213;49.720;7.296;2023-03-01T09:35:24;1.30;99.90
4399;DHT22;2213;49.720;7.296;2023-03-01T09:37:53;1.40;99.90
4399;DHT22;2213;49.720;7.296;2023-03-01T09:40:24;1.30;99.90
4399;DHT22;2213;49.720;7.296;2023-03-01T09:43:03;1.30;99.90
4399;DHT22;2213;49.720;7.296;2023-03-01T09:45:45;1.30;99.90
4399;DHT22;2213;49.720;7.296;2023-03-01T09:48:21;1.30;99.90
4399;DHT22;2213;49.720;7.296;2023-03-01T09:50:56;1.30;99.90
4399;DHT22;2213;49.720;7.296;2023-03-01T09:53:32;1.50;99.90
4399;DHT22;2213;49.720;7.296;2023-03-01T09:56:05;1.50;99.90
4399;DHT22;2213;49.720;7.296;2023-03-01T09:58:51;1.40;99.90
4399;DHT22;2213;49.720;7.296;2023-03-01T10:01:30;1.60;99.90
4399;DHT22;2213;49.720;7.296;2023-03-01T10:04:19;1.80;99.90
4399;DHT22;2213;49.720;7.296;2023-03-01T10:07:07;1.80;99.90
4399;DHT22;2213;49.720;7.296;2023-03-01T10:09:50;1.60;99.90
4399;DHT22;2213;49.720;7.296;2023-03-01T10:12:22;1.70;99.90
4399;DHT22;2213;49.720;7.296;2023-03-01T10:14:59;1.80;99.90
4399;DHT22;2213;49.720;7.296;2023-03-01T10:17:37;1.90;99.90
4399;DHT22;2213;49.720;7.296;2023-03-01T10:20:20;1.80;99.90
4399;DHT22;2213;49.720;7.296;2023-03-01T10:22:53;1.90;99.90
4399;DHT22;2213;49.720;7.296;2023-03-01T10:25:34;1.90;99.90
4399;DHT22;2213;49.720;7.296;2023-03-01T10:28:17;2.00;99.90
4399;DHT22;2213;49.720;7.296;2023-03-01T10:30:49;2.00;99.90
4399;DHT22;2213;49.720;7.296;2023-03-01T10:33:23;2.10;99.90
4399;DHT22;2213;49.720;7.296;2023-03-01T10:35:55;2.10;99.90
4399;DHT22;2213;49.720;7.296;2023-03-01T10:38:27;2.10;99.90
4399;DHT22;2213;49.720;7.296;2023-03-01T10:41:05;2.30;99.90
4399;DHT22;2213;49.720;7.296;2023-03-01T10:43:43;2.30;99.90
4399;DHT22;2213;49.720;7.296;2023-03-01T10:46:29;2.40;99.90
4399;DHT22;2213;49.720;7.296;2023-03-01T10:49:14;2.30;99.90
4399;DHT22;2213;49.720;7.296;2023-03-01T10:51:46;2.40;99.90
4399;DHT22;2213;49.720;7.296;2023-03-01T10:54:20;2.40;99.90
4399;DHT22;2213;49.720;7.296;2023-03-01T10:56:56;2.40;99.70
4399;DHT22;2213;49.720;7.296;2023-03-01T10:59:29;2.60;99.60
4399;DHT22;2213;49.720;7.296;2023-03-01T11:02:18;2.70;99.50
4399;DHT22;2213;49.720;7.296;2023-03-01T11:04:59;2.60;99.70
4399;DHT22;2213;49.720;7.296;2023-03-01T11:07:30;2.70;99.80
4399;DHT22;2213;49.720;7.296;2023-03-01T11:10:11;2.70;99.50
4399;DHT22;2213;49.720;7.296;2023-03-01T11:12:45;2.80;99.30
4399;DHT22;2213;49.720;7.296;2023-03-01T11:15:21;2.80;99.00
4399;DHT22;2213;49.720;7.296;2023-03-01T11:17:54;3.00;98.90
4399;DHT22;2213;49.720;7.296;2023-03-01T11:20:40;3.10;98.70
4399;DHT22;2213;49.720;7.296;2023-03-01T11:23:12;3.00;98.70
4399;DHT22;2213;49.720;7.296;2023-03-01T11:25:55;2.90;98.70
4399;DHT22;2213;49.720;7.296;2023-03-01T11:28:29;3.10;98.60
4399;DHT22;2213;49.720;7.296;2023-03-01T11:31:00;3.00;98.50
4399;DHT22;2213;49.720;7.296;2023-03-01T11:33:41;3.20;98.10
4399;DHT22;2213;49.720;7.296;2023-03-01T11:36:23;3.30;98.00
4399;DHT22;2213;49.720;7.296;2023-03-01T11:39:05;3.40;98.10
4399;DHT22;2213;49.720;7.296;2023-03-01T11:41:58;3.40;98.20
4399;DHT22;2213;49.720;7.296;2023-03-01T11:44:45;3.40;98.20
4399;DHT22;2213;49.720;7.296;2023-03-01T11:47:29;3.40;98.00
4399;DHT22;2213;49.720;7.296;2023-03-01T11:50:20;3.50;98.00
4399;DHT22;2213;49.720;7.296;2023-03-01T11:53:11;3.50;97.90
4399;DHT22;2213;49.720;7.296;2023-03-01T11:56:09;3.60;97.70
4399;DHT22;2213;49.720;7.296;2023-03-01T11:59:16;3.70;97.40
4399;DHT22;2213;49.720;7.296;2023-03-01T12:06:05;3.60;97.70
4399;DHT22;2213;49.720;7.296;2023-03-01T12:09:04;3.80;97.60
4399;DHT22;2213;49.720;7.296;2023-03-01T12:12:08;3.80;97.40
4399;DHT22;2213;49.720;7.296;2023-03-01T12:15:06;3.80;97.30
4399;DHT22;2213;49.720;7.296;2023-03-01T12:18:21;3.90;97.30
4399;DHT22;2213;49.720;7.296;2023-03-01T12:21:18;4.00;97.30
4399;DHT22;2213;49.720;7.296;2023-03-01T12:24:24;3.90;97.40
4399;DHT22;2213;49.720;7.296;2023-03-01T12:27:42;3.90;97.40
4399;DHT22;2213;49.720;7.296;2023-03-01T12:30:35;4.10;97.00
4399;DHT22;2213;49.720;7.296;2023-03-01T12:33:22;4.20;97.00
4399;DHT22;2213;49.720;7.296;2023-03-01T12:36:30;4.20;97.20
4399;DHT22;2213;49.720;7.296;2023-03-01T12:42:18;4.10;96.90
4399;DHT22;2213;49.720;7.296;2023-03-01T12:45:12;4.20;97.10
4399;DHT22;2213;49.720;7.296;2023-03-01T12:48:09;4.30;96.90
4399;DHT22;2213;49.720;7.296;2023-03-01T12:50:53;4.30;96.70
4399;DHT22;2213;49.720;7.296;2023-03-01T12:53:26;4.10;96.80
4399;DHT22;2213;49.720;7.296;2023-03-01T12:56:01;4.20;96.90
4399;DHT22;2213;49.720;7.296;2023-03-01T12:58:36;4.40;97.10
4399;DHT22;2213;49.720;7.296;2023-03-01T13:01:31;4.50;97.20
4399;DHT22;2213;49.720;7.296;2023-03-01T13:04:31;4.60;97.00
4399;DHT22;2213;49.720;7.296;2023-03-01T13:07:16;4.50;96.90
4399;DHT22;2213;49.720;7.296;2023-03-01T13:10:05;4.60;97.10
4399;DHT22;2213;49.720;7.296;2023-03-01T13:12:57;4.70;97.10
4399;DHT22;2213;49.720;7.296;2023-03-01T13:15:35;4.70;97.10
4399;DHT22;2213;49.720;7.296;2023-03-01T13:18:30;4.80;97.10
4399;DHT22;2213;49.720;7.296;2023-03-01T13:21:03;4.80;97.00
4399;DHT22;2213;49.720;7.296;2023-03-01T13:23:36;4.80;96.90
4399;DHT22;2213;49.720;7.296;2023-03-01T13:26:14;4.90;96.60
4399;DHT22;2213;49.720;7.296;2023-03-01T13:28:55;4.90;96.50
4399;DHT22;2213;49.720;7.296;2023-03-01T13:34:46;5.00;96.00
4399;DHT22;2213;49.720;7.296;2023-03-01T13:37:29;5.00;96.10
4399;DHT22;2213;49.720;7.296;2023-03-01T13:43:31;5.20;96.00
4399;DHT22;2213;49.720;7.296;2023-03-01T13:46:09;5.30;95.60
4399;DHT22;2213;49.720;7.296;2023-03-01T13:48:45;5.20;95.80
4399;DHT22;2213;49.720;7.296;2023-03-01T13:51:24;5.20;95.70
4399;DHT22;2213;49.720;7.296;2023-03-01T13:53:57;5.10;95.60
4399;DHT22;2213;49.720;7.296;2023-03-01T13:56:29;5.40;95.40
4399;DHT22;2213;49.720;7.296;2023-03-01T13:59:06;5.50;95.40
4399;DHT22;2213;49.720;7.296;2023-03-01T14:01:42;5.30;95.30
4399;DHT22;2213;49.720;7.296;2023-03-01T14:04:21;5.50;95.40
4399;DHT22;2213;49.720;7.296;2023-03-01T14:06:52;5.40;95.10
4399;DHT22;2213;49.720;7.296;2023-03-01T14:09:41;5.60;95.50
4399;DHT22;2213;49.720;7.296;2023-03-01T14:12:35;5.60;95.90
4399;DHT22;2213;49.720;7.296;2023-03-01T14:15:17;5.50;96.70
4399;DHT22;2213;49.720;7.296;2023-03-01T14:18:02;5.50;97.00
4399;DHT22;2213;49.720;7.296;2023-03-01T14:20:57;5.70;97.60
4399;DHT22;2213;49.720;7.296;2023-03-01T14:23:26;5.90;97.60
4399;DHT22;2213;49.720;7.296;2023-03-01T14:25:58;6.40;97.50
4399;DHT22;2213;49.720;7.296;2023-03-01T14:28:29;6.80;96.50
4399;DHT22;2213;49.720;7.296;2023-03-01T14:31:01;6.80;95.60
4399;DHT22;2213;49.720;7.296;2023-03-01T14:33:32;6.90;95.50
4399;DHT22;2213;49.720;7.296;2023-03-01T14:36:06;7.20;95.80
4399;DHT22;2213;49.720;7.296;2023-03-01T14:38:40;7.10;95.30
4399;DHT22;2213;49.720;7.296;2023-03-01T14:41:14;6.90;95.40
4399;DHT22;2213;49.720;7.296;2023-03-01T14:43:46;6.90;95.40
4399;DHT22;2213;49.720;7.296;2023-03-01T14:46:20;6.90;95.40
4399;DHT22;2213;49.720;7.296;2023-03-01T14:48:55;7.00;95.30
4399;DHT22;2213;49.720;7.296;2023-03-01T14:51:30;6.80;95.20
4399;DHT22;2213;49.720;7.296;2023-03-01T14:54:13;6.80;95.50
4399;DHT22;2213;49.720;7.296;2023-03-01T14:56:51;7.00;95.40
4399;DHT22;2213;49.720;7.296;2023-03-01T14:59:24;6.90;95.50
4399;DHT22;2213;49.720;7.296;2023-03-01T15:01:55;6.80;95.50
4399;DHT22;2213;49.720;7.296;2023-03-01T15:04:27;6.90;95.80
4399;DHT22;2213;49.720;7.296;2023-03-01T15:06:58;7.00;95.60
4399;DHT22;2213;49.720;7.296;2023-03-01T15:09:34;6.90;95.60
4399;DHT22;2213;49.720;7.296;2023-03-01T15:12:34;6.90;95.20
4399;DHT22;2213;49.720;7.296;2023-03-01T15:15:32;6.80;95.00
4399;DHT22;2213;49.720;7.296;2023-03-01T15:18:17;6.70;94.80
4399;DHT22;2213;49.720;7.296;2023-03-01T15:20:49;6.90;95.30
4399;DHT22;2213;49.720;7.296;2023-03-01T15:23:23;6.90;94.70
4399;DHT22;2213;49.720;7.296;2023-03-01T15:25:56;6.80;94.60
4399;DHT22;2213;49.720;7.296;2023-03-01T15:28:31;6.80;94.50
4399;DHT22;2213;49.720;7.296;2023-03-01T15:31:20;6.80;94.40
4399;DHT22;2213;49.720;7.296;2023-03-01T15:33:52;6.80;94.40
4399;DHT22;2213;49.720;7.296;2023-03-01T15:36:42;6.90;94.40
4399;DHT22;2213;49.720;7.296;2023-03-01T15:39:52;6.80;93.90
4399;DHT22;2213;49.720;7.296;2023-03-01T15:42:36;6.70;93.80
4399;DHT22;2213;49.720;7.296;2023-03-01T15:45:19;6.70;93.70
4399;DHT22;2213;49.720;7.296;2023-03-01T15:47:52;6.70;93.50
4399;DHT22;2213;49.720;7.296;2023-03-01T15:50:26;6.70;93.90
4399;DHT22;2213;49.720;7.296;2023-03-01T15:52:58;6.70;94.00
4399;DHT22;2213;49.720;7.296;2023-03-01T15:55:31;6.80;94.10
4399;DHT22;2213;49.720;7.296;2023-03-01T15:58:02;6.70;93.40
4399;DHT22;2213;49.720;7.296;2023-03-01T16:00:37;6.70;93.60
4399;DHT22;2213;49.720;7.296;2023-03-01T16:03:23;6.60;93.50
4399;DHT22;2213;49.720;7.296;2023-03-01T16:05:52;6.60;93.40
4399;DHT22;2213;49.720;7.296;2023-03-01T16:08:22;6.50;93.50
4399;DHT22;2213;49.720;7.296;2023-03-01T16:10:52;6.50;93.80
4399;DHT22;2213;49.720;7.296;2023-03-01T16:13:22;6.40;93.80
4399;DHT22;2213;49.720;7.296;2023-03-01T16:15:56;6.40;93.80
4399;DHT22;2213;49.720;7.296;2023-03-01T16:18:26;6.40;93.50
4399;DHT22;2213;49.720;7.296;2023-03-01T16:20:55;6.20;93.60
4399;DHT22;2213;49.720;7.296;2023-03-01T16:23:24;6.20;93.80
4399;DHT22;2213;49.720;7.296;2023-03-01T16:25:54;6.10;93.90
4399;DHT22;2213;49.720;7.296;2023-03-01T16:28:27;6.00;94.00
4399;DHT22;2213;49.720;7.296;2023-03-01T16:30:57;6.00;94.10
4399;DHT22;2213;49.720;7.296;2023-03-01T16:33:29;6.00;94.10
4399;DHT22;2213;49.720;7.296;2023-03-01T16:36:00;6.00;94.20
4399;DHT22;2213;49.720;7.296;2023-03-01T16:38:31;6.00;94.30
4399;DHT22;2213;49.720;7.296;2023-03-01T16:41:02;5.90;94.30
4399;DHT22;2213;49.720;7.296;2023-03-01T16:43:32;5.90;94.30
4399;DHT22;2213;49.720;7.296;2023-03-01T16:46:10;5.90;94.20
4399;DHT22;2213;49.720;7.296;2023-03-01T16:48:41;5.80;94.20
4399;DHT22;2213;49.720;7.296;2023-03-01T16:51:11;5.70;94.50
4399;DHT22;2213;49.720;7.296;2023-03-01T16:53:41;5.60;94.80
4399;DHT22;2213;49.720;7.296;2023-03-01T16:56:14;5.70;94.70
4399;DHT22;2213;49.720;7.296;2023-03-01T16:58:45;5.50;95.40
4399;DHT22;2213;49.720;7.296;2023-03-01T17:01:18;5.50;95.30
4399;DHT22;2213;49.720;7.296;2023-03-01T17:03:51;5.50;94.60
4399;DHT22;2213;49.720;7.296;2023-03-01T17:06:21;5.50;94.40
4399;DHT22;2213;49.720;7.296;2023-03-01T17:08:52;5.50;94.60
4399;DHT22;2213;49.720;7.296;2023-03-01T17:11:20;5.30;94.70
4399;DHT22;2213;49.720;7.296;2023-03-01T17:13:51;5.20;95.40